Tenerife > WETTERSTATION Camino de Chasna - La Orotava

AKTUELLE DATEN Online

Letztes Update am 36 minutos

20.3 ºC

Temperatur

53

Feuchtigkeit (%)

924.43

Druck (mb)

0

Niederschlag (mm)

6.3 S

Wind (Km/h)

TÄGLICHE DATEN

Temperatur in den letzten 24 Stunden (ºC)

Luftfeuchtigkeit letzte 24 Stunden (%)

Atmosphärischer Druck in den letzten 24 Stunden últimas 24 horas (mb)

Niederschläge in den letzten 24 Stunden (mm)

Windböen in den letzten 24 Stunden (Km/h)

Stunde Temperatur (°C) ºC Niederschlag (mm) mm Druck (mb) mb Feuchtigkeit (%) % Wind (Km/h) km/h
15 - 22:00 17.6 0 925 88 7 W
15 - 23:00 17.4 0 925 89 4.2 O
16 - 00:00 16.7 0 925 85 5.5 SO
16 - 01:00 17.1 0 925 81 4.6 S
16 - 02:00 16.9 0 924 78 5.8 S
16 - 03:00 17.5 0 924 70 7.4 S
16 - 04:00 16.8 0 924 82 7.2 SW
16 - 05:00 16.7 0 924 80 8.7 S
16 - 06:00 17.6 0 924 74 4.4 SW
16 - 07:00 17.1 0 924 64 6.4 S
16 - 08:00 20.4 0 924 46 7.7 SO
16 - 09:00 22.4 0 924 47 3.4 W
16 - 10:00 22 0 924 72 5.2 N
16 - 11:00 21.6 0 924 79 9.9 N
16 - 12:00 21.4 0 925 81 9.3 NW
16 - 13:00 22.1 0 925 80 10.7 N
16 - 14:00 22.5 0 924 78 13.5 N
16 - 15:00 23.1 0 924 75 12.7 N
16 - 16:00 23.1 0 924 74 10.2 N
16 - 17:00 21.2 0 923 80 10.9 N
16 - 18:00 20.6 0 923 81 7.5 N
16 - 19:00 19.6 0 924 84 7.7 NW
16 - 20:00 19.5 0 924 77 6.9 SO
16 - 21:00 20 0 924 57 8.9 S
16 - 22:00 20.3 0 924 53 6.3 S
Apalmet nutzt eigene Cookies sowie Cookies von Dritten um unsere Dienstleistungen zu verbessern Cookies.